createdAt,value
2022-09-30T00:02:18.471Z,65.71
2022-09-30T00:04:45.651Z,66.34
2022-09-30T00:07:12.410Z,65.62
2022-09-30T00:09:39.339Z,65.81
2022-09-30T00:12:06.481Z,66.06
2022-09-30T00:14:33.236Z,65.42
2022-09-30T00:17:00.107Z,65.09
2022-09-30T00:19:27.067Z,64.71
2022-09-30T00:21:53.763Z,65.79
2022-09-30T00:24:21.126Z,65.36
2022-09-30T00:26:48.043Z,65.32
2022-09-30T00:29:14.756Z,65.29
2022-09-30T00:31:41.695Z,65.84
2022-09-30T00:34:09.327Z,65.67
2022-09-30T00:36:38.148Z,65.71
2022-09-30T00:39:06.128Z,65.76
2022-09-30T00:41:33.102Z,66.08
2022-09-30T00:43:59.802Z,64.70
2022-09-30T00:46:35.242Z,65.65
2022-09-30T00:49:04.396Z,65.91
2022-09-30T00:51:35.891Z,66.73
2022-09-30T00:54:07.406Z,66.42
2022-09-30T00:56:34.888Z,66.04
2022-09-30T00:59:04.572Z,67.35
2022-09-30T01:01:31.594Z,66.76
2022-09-30T01:04:05.978Z,67.05
2022-09-30T01:06:32.897Z,67.20
2022-09-30T01:08:59.697Z,66.53
2022-09-30T01:11:27.326Z,66.46
2022-09-30T01:13:55.275Z,66.08
2022-09-30T01:16:22.022Z,66.12
2022-09-30T01:18:51.587Z,65.97
2022-09-30T01:21:30.632Z,66.10
2022-09-30T01:24:03.464Z,66.18
2022-09-30T01:26:59.954Z,66.14
2022-09-30T01:29:38.481Z,66.03
2022-09-30T01:32:05.386Z,65.59
2022-09-30T01:34:37.476Z,66.28
2022-09-30T01:37:10.186Z,68.36
2022-09-30T01:39:43.292Z,65.61
2022-09-30T01:42:10.156Z,65.71
2022-09-30T01:44:55.967Z,65.77
2022-09-30T01:47:25.369Z,65.49
2022-09-30T01:49:55.219Z,65.13
2022-09-30T01:52:29.100Z,64.95
2022-09-30T01:54:59.275Z,65.23
2022-09-30T01:57:25.911Z,65.91
2022-09-30T02:00:00.732Z,65.09
2022-09-30T02:02:28.435Z,65.58
2022-09-30T02:04:57.702Z,66.34
2022-09-30T02:07:26.170Z,66.73
2022-09-30T02:09:55.141Z,66.16
2022-09-30T02:12:22.727Z,65.58
2022-09-30T02:15:09.650Z,66.05
2022-09-30T02:17:40.629Z,66.46
2022-09-30T02:20:08.241Z,66.58
2022-09-30T02:22:42.513Z,66.49
2022-09-30T02:25:11.524Z,66.90
2022-09-30T02:27:42.368Z,66.80
2022-09-30T02:30:09.675Z,66.96
2022-09-30T02:32:44.535Z,66.11
2022-09-30T02:35:20.026Z,65.78
2022-09-30T02:37:50.378Z,66.33
2022-09-30T02:40:32.466Z,66.35
2022-09-30T02:42:59.102Z,66.10
2022-09-30T02:45:26.944Z,66.44
2022-09-30T02:47:56.611Z,66.89
2022-09-30T02:50:26.918Z,67.37
2022-09-30T02:53:12.797Z,67.47
2022-09-30T02:55:39.521Z,66.68
2022-09-30T02:58:09.432Z,66.67
2022-09-30T03:00:36.113Z,66.15
2022-09-30T03:03:05.291Z,66.07
2022-09-30T03:05:32.260Z,66.65
2022-09-30T03:07:58.897Z,66.23
2022-09-30T03:10:25.553Z,66.53
2022-09-30T03:12:55.512Z,66.32
2022-09-30T03:15:25.019Z,67.08
2022-09-30T03:17:59.566Z,67.18
2022-09-30T03:20:32.374Z,66.42
2022-09-30T03:23:08.336Z,66.85
2022-09-30T03:25:40.921Z,67.22
2022-09-30T03:28:25.150Z,67.05
2022-09-30T03:31:10.469Z,68.03
2022-09-30T03:33:40.166Z,67.45
2022-09-30T03:36:06.837Z,66.82
2022-09-30T03:38:36.757Z,66.02
2022-09-30T03:41:06.419Z,66.08
2022-09-30T03:43:33.678Z,66.23
2022-09-30T03:46:06.953Z,66.26
2022-09-30T03:48:34.073Z,66.37
2022-09-30T03:51:00.746Z,66.65
2022-09-30T03:53:28.589Z,67.31
2022-09-30T03:55:55.524Z,67.53
2022-09-30T03:58:23.530Z,67.46
2022-09-30T04:00:51.218Z,67.59
2022-09-30T04:03:21.612Z,67.11
2022-09-30T04:05:48.341Z,67.78
2022-09-30T04:08:15.127Z,67.08
2022-09-30T04:10:42.425Z,66.22
2022-09-30T04:13:09.499Z,66.63
2022-09-30T04:15:36.332Z,66.46
2022-09-30T04:18:04.103Z,66.10
2022-09-30T04:20:31.043Z,66.69
2022-09-30T04:22:58.766Z,66.81
2022-09-30T04:25:26.286Z,67.39
2022-09-30T04:27:53.100Z,66.73
2022-09-30T04:30:24.574Z,66.59
2022-09-30T04:32:52.680Z,66.15
2022-09-30T04:35:19.674Z,66.54
2022-09-30T04:37:47.031Z,66.61
2022-09-30T04:40:14.866Z,66.86
2022-09-30T04:42:42.929Z,66.82
2022-09-30T04:45:12.767Z,67.32
2022-09-30T04:47:43.386Z,66.89
2022-09-30T04:50:10.383Z,67.38
2022-09-30T04:52:38.407Z,67.39
2022-09-30T04:55:05.609Z,66.33
2022-09-30T04:57:32.280Z,65.85
2022-09-30T04:59:59.492Z,65.79
2022-09-30T05:02:26.507Z,65.82
2022-09-30T05:04:54.584Z,65.31
2022-09-30T05:07:22.088Z,65.79
2022-09-30T05:09:49.257Z,65.50
2022-09-30T05:12:16.336Z,65.99
2022-09-30T05:14:43.182Z,65.95
2022-09-30T05:17:10.557Z,66.17
2022-09-30T05:19:37.255Z,66.61
2022-09-30T05:22:03.900Z,66.67
2022-09-30T05:24:30.989Z,66.37
2022-09-30T05:26:57.650Z,66.26
2022-09-30T05:29:24.380Z,66.18
2022-09-30T05:31:51.422Z,66.72
2022-09-30T05:34:18.170Z,66.99
2022-09-30T05:36:44.874Z,66.73
2022-09-30T05:39:12.109Z,66.18
2022-09-30T05:41:38.843Z,65.99
2022-09-30T05:44:06.324Z,66.35
2022-09-30T05:46:33.345Z,66.71
2022-09-30T05:49:00.142Z,66.86
2022-09-30T05:51:26.932Z,66.00
2022-09-30T05:53:53.932Z,66.14
2022-09-30T05:56:20.649Z,66.52
2022-09-30T05:58:47.466Z,66.54
2022-09-30T06:01:15.577Z,67.13
2022-09-30T06:03:43.275Z,67.22
2022-09-30T06:06:10.237Z,66.94
2022-09-30T06:08:37.021Z,67.76
2022-09-30T06:11:10.199Z,66.69
2022-09-30T06:13:37.442Z,66.50
2022-09-30T06:16:05.523Z,66.04
2022-09-30T06:18:32.963Z,66.48
2022-09-30T06:21:00.356Z,67.62
2022-09-30T06:23:27.458Z,67.80
2022-09-30T06:25:54.389Z,68.08
2022-09-30T06:28:21.868Z,66.94
2022-09-30T06:30:49.024Z,67.36
2022-09-30T06:33:15.769Z,67.87
2022-09-30T06:35:44.904Z,68.62
2022-09-30T06:38:12.059Z,68.77
2022-09-30T06:40:38.765Z,68.91
2022-09-30T06:43:05.497Z,68.40
2022-09-30T06:45:33.435Z,67.61
2022-09-30T06:48:01.519Z,67.32
2022-09-30T06:50:29.704Z,67.87
2022-09-30T06:53:29.776Z,67.84
2022-09-30T06:55:57.138Z,67.63
2022-09-30T06:58:26.767Z,67.75
2022-09-30T07:01:01.419Z,67.63
2022-09-30T07:03:31.638Z,66.64
2022-09-30T07:05:59.419Z,66.69
2022-09-30T07:08:29.071Z,67.10
2022-09-30T07:10:56.244Z,67.26
2022-09-30T07:13:23.130Z,66.71
2022-09-30T07:15:52.218Z,67.12
2022-09-30T07:18:20.595Z,67.57
2022-09-30T07:20:50.886Z,67.80
2022-09-30T07:23:17.791Z,67.38
2022-09-30T07:25:51.648Z,67.55
2022-09-30T07:28:18.350Z,67.96
2022-09-30T07:30:45.380Z,68.58
2022-09-30T07:33:16.570Z,68.01
2022-09-30T07:35:56.295Z,68.38
2022-09-30T07:38:26.017Z,67.24
2022-09-30T07:40:58.206Z,66.99
2022-09-30T07:43:25.533Z,67.43
2022-09-30T07:45:52.228Z,67.34
2022-09-30T07:48:57.491Z,67.70
2022-09-30T07:51:27.007Z,67.28
2022-09-30T07:53:54.467Z,67.14
2022-09-30T07:56:21.933Z,67.44
2022-09-30T07:58:49.225Z,67.27
2022-09-30T08:01:17.213Z,67.63
2022-09-30T08:03:47.227Z,68.17
2022-09-30T08:06:15.142Z,68.80
2022-09-30T08:08:42.184Z,67.54
2022-09-30T08:11:09.194Z,68.81
2022-09-30T08:13:36.086Z,68.12
2022-09-30T08:16:02.805Z,67.25
2022-09-30T08:18:29.929Z,67.73
2022-09-30T08:20:56.729Z,68.78
2022-09-30T08:23:23.441Z,68.39
2022-09-30T08:25:50.439Z,70.30
2022-09-30T08:28:18.362Z,68.39
2022-09-30T08:30:45.092Z,68.65
2022-09-30T08:33:12.028Z,68.48
2022-09-30T08:35:38.723Z,69.57
2022-09-30T08:38:05.404Z,70.47
2022-09-30T08:40:33.325Z,72.42
2022-09-30T08:43:03.076Z,70.99
2022-09-30T08:45:35.697Z,72.61
2022-09-30T08:48:08.866Z,73.15
2022-09-30T08:50:40.759Z,73.26
2022-09-30T08:53:12.038Z,74.42
2022-09-30T08:55:40.141Z,75.59
2022-09-30T08:58:07.452Z,75.72
2022-09-30T09:00:34.185Z,74.02
2022-09-30T09:03:01.119Z,75.36
2022-09-30T09:05:34.030Z,74.10
2022-09-30T09:08:03.817Z,74.26
2022-09-30T09:10:34.391Z,72.89
2022-09-30T09:13:01.312Z,73.41
2022-09-30T09:15:33.662Z,74.71
2022-09-30T09:18:22.747Z,73.56
2022-09-30T09:20:54.936Z,71.81
2022-09-30T09:23:22.084Z,72.25
2022-09-30T09:25:52.961Z,73.18
2022-09-30T09:28:33.784Z,74.99
2022-09-30T09:31:01.724Z,76.02
2022-09-30T09:33:29.799Z,75.71
2022-09-30T09:36:08.920Z,74.54
2022-09-30T09:38:39.402Z,74.46
2022-09-30T09:41:12.942Z,74.28
2022-09-30T09:43:52.067Z,73.59
2022-09-30T09:46:26.616Z,74.33
2022-09-30T09:49:13.033Z,74.80
2022-09-30T09:51:40.993Z,74.67
2022-09-30T09:54:08.945Z,74.69
2022-09-30T09:56:37.852Z,74.70
2022-09-30T09:59:05.312Z,74.11
2022-09-30T10:01:42.678Z,72.45
2022-09-30T10:04:17.782Z,73.20
2022-09-30T10:06:59.964Z,75.66
2022-09-30T10:09:37.032Z,74.63
2022-09-30T10:12:06.830Z,73.47
2022-09-30T10:14:46.242Z,73.60
2022-09-30T10:17:20.090Z,74.63
2022-09-30T10:19:49.787Z,76.11
2022-09-30T10:22:17.466Z,74.41
2022-09-30T10:24:44.252Z,74.74
2022-09-30T10:27:30.727Z,74.12
2022-09-30T10:29:57.418Z,74.38
2022-09-30T10:32:24.519Z,74.87
2022-09-30T10:34:55.105Z,74.63
2022-09-30T10:37:22.412Z,73.67
2022-09-30T10:40:01.412Z,71.60
2022-09-30T10:42:29.742Z,71.59
2022-09-30T10:44:57.527Z,71.77
2022-09-30T10:47:26.326Z,72.90
2022-09-30T10:50:07.188Z,73.60
2022-09-30T10:52:35.203Z,75.09
2022-09-30T10:55:14.724Z,73.94
2022-09-30T10:57:43.342Z,71.68
2022-09-30T11:00:10.121Z,71.69
2022-09-30T11:02:37.086Z,70.80
2022-09-30T11:05:24.596Z,70.52
2022-09-30T11:07:57.351Z,71.58
2022-09-30T11:10:33.248Z,71.37
2022-09-30T11:13:20.229Z,70.74
2022-09-30T11:16:11.668Z,69.84
2022-09-30T11:18:38.389Z,70.62
2022-09-30T11:21:07.376Z,67.89
2022-09-30T11:23:36.253Z,66.21
2022-09-30T11:26:05.631Z,70.56
2022-09-30T11:28:42.038Z,67.51
2022-09-30T11:31:13.724Z,66.94
2022-09-30T11:33:44.147Z,65.96
2022-09-30T11:36:10.824Z,65.28
2022-09-30T11:38:46.462Z,67.24
2022-09-30T11:41:30.428Z,66.47
2022-09-30T11:43:57.101Z,66.19
2022-09-30T11:46:33.447Z,67.10
2022-09-30T11:49:24.761Z,65.42
2022-09-30T11:52:04.262Z,65.21
2022-09-30T11:54:40.547Z,66.36
2022-09-30T11:57:08.614Z,64.00
2022-09-30T11:59:42.893Z,65.56
2022-09-30T12:02:26.860Z,65.14
2022-09-30T12:04:58.361Z,64.56
2022-09-30T12:07:38.711Z,61.80
2022-09-30T12:10:27.246Z,63.51
2022-09-30T12:12:58.360Z,64.43
2022-09-30T12:15:27.143Z,66.30
2022-09-30T12:17:57.479Z,63.94
2022-09-30T12:20:36.490Z,62.73
2022-09-30T12:23:23.800Z,63.24
2022-09-30T12:26:01.197Z,62.09
2022-09-30T12:28:47.201Z,60.29
2022-09-30T12:31:36.138Z,58.09
2022-09-30T12:34:03.971Z,60.01
2022-09-30T12:36:50.918Z,60.48
2022-09-30T12:39:17.991Z,61.64
2022-09-30T12:41:48.375Z,60.20
2022-09-30T12:44:41.041Z,59.27
2022-09-30T12:47:08.111Z,59.43
2022-09-30T12:49:35.252Z,60.96
2022-09-30T12:52:05.479Z,60.99
2022-09-30T12:54:36.293Z,60.97
2022-09-30T12:57:04.102Z,59.37
2022-09-30T12:59:32.170Z,60.46
2022-09-30T13:01:59.494Z,60.12
2022-09-30T13:04:29.543Z,59.11
2022-09-30T13:06:56.280Z,59.37
2022-09-30T13:09:55.856Z,59.96
2022-09-30T13:12:30.463Z,61.63
2022-09-30T13:15:17.398Z,60.69
2022-09-30T13:17:45.896Z,59.93
2022-09-30T13:20:31.459Z,60.53
2022-09-30T13:22:59.997Z,62.08
2022-09-30T13:25:27.495Z,60.58
2022-09-30T13:28:21.206Z,60.82
2022-09-30T13:30:48.268Z,60.39
2022-09-30T13:33:28.299Z,61.76
2022-09-30T13:35:57.657Z,61.54
2022-09-30T13:38:33.685Z,60.38
2022-09-30T13:41:06.867Z,59.84
2022-09-30T13:43:43.469Z,61.39
2022-09-30T13:46:17.283Z,60.84
2022-09-30T13:49:10.249Z,59.41
2022-09-30T13:51:38.006Z,60.38
2022-09-30T13:54:30.249Z,61.68
2022-09-30T13:56:57.389Z,61.48
2022-09-30T13:59:24.598Z,60.82
2022-09-30T14:01:55.895Z,60.08
2022-09-30T14:04:32.128Z,59.57
2022-09-30T14:07:14.228Z,59.60
2022-09-30T14:09:41.132Z,58.23
2022-09-30T14:12:12.353Z,60.00
2022-09-30T14:15:00.610Z,58.75
2022-09-30T14:17:46.326Z,59.03
2022-09-30T14:20:23.044Z,60.33
2022-09-30T14:22:50.201Z,59.98
2022-09-30T14:25:17.825Z,60.29
2022-09-30T14:28:04.948Z,58.50
2022-09-30T14:30:34.442Z,59.35
2022-09-30T14:33:11.234Z,59.04
2022-09-30T14:35:41.118Z,59.77
2022-09-30T14:38:08.586Z,59.71
2022-09-30T14:40:36.348Z,59.41
2022-09-30T14:43:04.973Z,59.20
2022-09-30T14:45:33.047Z,59.05
2022-09-30T14:48:02.401Z,58.72
2022-09-30T14:50:31.352Z,59.24
2022-09-30T14:53:00.478Z,58.49
2022-09-30T14:55:31.365Z,59.16
2022-09-30T14:58:21.576Z,59.05
2022-09-30T15:01:08.562Z,59.05
2022-09-30T15:03:37.032Z,57.37
2022-09-30T15:06:03.902Z,58.24
2022-09-30T15:08:30.588Z,57.94
2022-09-30T15:10:57.530Z,58.28
2022-09-30T15:13:25.135Z,58.87
2022-09-30T15:15:51.879Z,58.25
2022-09-30T15:18:25.910Z,58.40
2022-09-30T15:20:54.461Z,59.93
2022-09-30T15:23:24.462Z,59.38
2022-09-30T15:25:52.808Z,59.87
2022-09-30T15:28:19.534Z,60.40
2022-09-30T15:30:46.497Z,60.46
2022-09-30T15:33:17.801Z,60.11
2022-09-30T15:35:45.272Z,60.41
2022-09-30T15:38:14.918Z,61.77
2022-09-30T15:40:50.276Z,61.33
2022-09-30T15:43:36.706Z,61.41
2022-09-30T15:46:27.312Z,60.99
2022-09-30T15:48:55.767Z,60.73
2022-09-30T15:51:41.250Z,61.12
2022-09-30T15:54:15.349Z,61.28
2022-09-30T15:56:43.294Z,61.45
2022-09-30T15:59:14.949Z,61.16
2022-09-30T16:01:49.197Z,61.48
2022-09-30T16:04:16.874Z,61.00
2022-09-30T16:06:48.699Z,60.83
2022-09-30T16:09:38.494Z,60.57
2022-09-30T16:12:12.952Z,60.85
2022-09-30T16:14:45.053Z,61.13
2022-09-30T16:17:18.265Z,61.04
2022-09-30T16:19:52.657Z,61.04
2022-09-30T16:22:41.793Z,61.50
2022-09-30T16:25:35.255Z,60.88
2022-09-30T16:28:12.692Z,61.15
2022-09-30T16:30:48.089Z,60.96
2022-09-30T16:33:16.797Z,60.94
2022-09-30T16:35:49.625Z,61.52
2022-09-30T16:38:17.420Z,61.72
2022-09-30T16:40:44.122Z,61.96
2022-09-30T16:43:13.844Z,61.35
2022-09-30T16:45:43.860Z,61.66
2022-09-30T16:48:23.907Z,61.67
2022-09-30T16:51:14.533Z,61.97
2022-09-30T16:53:41.786Z,62.66
2022-09-30T16:56:14.448Z,62.46
2022-09-30T16:58:42.846Z,62.87
2022-09-30T17:01:20.720Z,62.48
2022-09-30T17:03:47.726Z,62.38
2022-09-30T17:06:15.281Z,62.43
2022-09-30T17:08:44.329Z,62.78
2022-09-30T17:11:11.455Z,62.31
2022-09-30T17:13:38.674Z,62.88
2022-09-30T17:16:05.573Z,62.53
2022-09-30T17:18:32.653Z,62.84
2022-09-30T17:21:01.308Z,62.96
2022-09-30T17:23:28.111Z,63.18
2022-09-30T17:25:55.028Z,63.75
2022-09-30T17:28:22.484Z,63.36
2022-09-30T17:30:50.425Z,63.67
2022-09-30T17:33:18.970Z,63.23
2022-09-30T17:35:46.259Z,62.67
2022-09-30T17:38:13.180Z,62.53
2022-09-30T17:40:58.626Z,63.57
2022-09-30T17:43:25.548Z,63.66
2022-09-30T17:45:52.465Z,63.11
2022-09-30T17:48:19.311Z,63.35
2022-09-30T17:50:46.990Z,63.09
2022-09-30T17:53:14.378Z,63.39
2022-09-30T17:55:41.628Z,62.94
2022-09-30T17:58:09.372Z,62.28
2022-09-30T18:00:36.835Z,62.54
2022-09-30T18:03:04.235Z,62.66
2022-09-30T18:05:31.959Z,62.57
2022-09-30T18:07:58.846Z,62.61
2022-09-30T18:10:25.935Z,62.46
2022-09-30T18:12:53.057Z,62.27
2022-09-30T18:15:20.657Z,61.88
2022-09-30T18:17:47.881Z,62.19
2022-09-30T18:20:14.972Z,61.63
2022-09-30T18:22:41.663Z,61.87
2022-09-30T18:25:20.917Z,62.09
2022-09-30T18:27:49.651Z,62.21
2022-09-30T18:30:18.838Z,62.44
2022-09-30T18:32:49.656Z,62.64
2022-09-30T18:35:18.537Z,63.17
2022-09-30T18:37:47.756Z,64.38
2022-09-30T18:40:17.414Z,63.59
2022-09-30T18:42:44.342Z,63.98
2022-09-30T18:45:12.701Z,64.37
2022-09-30T18:47:41.227Z,64.45
2022-09-30T18:50:14.149Z,64.47
2022-09-30T18:52:41.128Z,64.01
2022-09-30T18:55:09.808Z,64.20
2022-09-30T18:57:36.608Z,63.73
2022-09-30T19:00:04.131Z,63.27
2022-09-30T19:02:34.637Z,63.20
2022-09-30T19:05:01.589Z,64.10
2022-09-30T19:07:29.088Z,64.59
2022-09-30T19:09:55.833Z,64.40
2022-09-30T19:12:22.639Z,64.79
2022-09-30T19:14:49.659Z,64.18
2022-09-30T19:17:17.070Z,64.18
2022-09-30T19:19:46.130Z,64.16
2022-09-30T19:22:13.646Z,64.76
2022-09-30T19:24:42.766Z,64.64
2022-09-30T19:27:11.224Z,64.50
2022-09-30T19:29:39.522Z,65.69
2022-09-30T19:32:10.280Z,66.24
2022-09-30T19:34:39.031Z,65.13
2022-09-30T19:37:08.018Z,64.92
2022-09-30T19:39:45.812Z,64.68
2022-09-30T19:42:14.487Z,64.84
2022-09-30T19:44:42.012Z,64.67
2022-09-30T19:47:09.536Z,64.43
2022-09-30T19:49:37.564Z,65.14
2022-09-30T19:52:18.051Z,65.60
2022-09-30T19:54:48.990Z,65.89
2022-09-30T19:57:16.144Z,65.73
2022-09-30T19:59:43.538Z,64.36
2022-09-30T20:02:11.598Z,64.59
2022-09-30T20:04:40.417Z,64.10
2022-09-30T20:07:07.142Z,64.61
2022-09-30T20:09:34.789Z,64.09
2022-09-30T20:12:01.970Z,65.06
2022-09-30T20:14:47.071Z,65.23
2022-09-30T20:17:14.783Z,64.46
2022-09-30T20:19:52.124Z,64.93
2022-09-30T20:22:19.135Z,64.63
2022-09-30T20:24:45.980Z,64.69
2022-09-30T20:27:12.656Z,65.63
2022-09-30T20:29:39.621Z,65.39
2022-09-30T20:32:07.916Z,65.98
2022-09-30T20:34:38.673Z,64.40
2022-09-30T20:37:06.940Z,64.33
2022-09-30T20:39:34.726Z,64.80
2022-09-30T20:42:01.431Z,64.87
2022-09-30T20:44:28.375Z,64.50
2022-09-30T20:46:55.057Z,63.90
2022-09-30T20:49:21.808Z,64.52
2022-09-30T20:51:49.113Z,64.77
2022-09-30T20:54:15.764Z,65.37
2022-09-30T20:57:05.818Z,65.77
2022-09-30T20:59:29.390Z,65.69
2022-09-30T21:01:56.196Z,65.02
2022-09-30T21:04:22.954Z,64.87
2022-09-30T21:06:49.896Z,64.52
2022-09-30T21:09:17.081Z,65.15
2022-09-30T21:11:44.413Z,64.40
2022-09-30T21:14:11.595Z,66.18
2022-09-30T21:16:38.411Z,65.58
2022-09-30T21:19:05.191Z,64.94
2022-09-30T21:21:32.381Z,65.39
2022-09-30T21:23:59.996Z,65.43
2022-09-30T21:26:26.910Z,65.38
2022-09-30T21:28:54.021Z,65.69
2022-09-30T21:31:21.919Z,65.30
2022-09-30T21:33:58.260Z,65.28
2022-09-30T21:36:26.018Z,65.46
2022-09-30T21:38:53.055Z,66.05
2022-09-30T21:41:21.853Z,66.30
2022-09-30T21:43:49.348Z,66.46
2022-09-30T21:46:16.479Z,65.54
2022-09-30T21:48:43.611Z,65.12
2022-09-30T21:51:10.557Z,64.95
2022-09-30T21:53:38.990Z,65.26
2022-09-30T21:56:06.065Z,65.28
2022-09-30T21:58:33.131Z,65.54
2022-09-30T22:01:01.008Z,65.14
2022-09-30T22:03:28.850Z,65.36
2022-09-30T22:05:56.412Z,65.64
2022-09-30T22:08:24.356Z,65.01
2022-09-30T22:10:51.351Z,64.98
2022-09-30T22:13:18.145Z,64.55
2022-09-30T22:15:45.241Z,65.23
2022-09-30T22:18:17.431Z,65.58
2022-09-30T22:20:44.581Z,65.71
2022-09-30T22:23:11.570Z,66.69
2022-09-30T22:25:38.546Z,66.32
2022-09-30T22:28:05.532Z,65.80
2022-09-30T22:30:32.635Z,65.33
2022-09-30T22:33:18.115Z,66.14
2022-09-30T22:36:03.804Z,65.89
2022-09-30T22:38:31.263Z,66.09
2022-09-30T22:40:59.413Z,66.08
2022-09-30T22:43:26.537Z,66.08
2022-09-30T22:46:04.331Z,66.41
2022-09-30T22:48:33.973Z,65.61
2022-09-30T22:51:01.197Z,65.64
2022-09-30T22:53:27.880Z,65.88
2022-09-30T22:55:54.983Z,66.10
2022-09-30T22:58:24.244Z,65.76
2022-09-30T23:00:54.184Z,66.43
2022-09-30T23:03:20.935Z,66.17
2022-09-30T23:05:48.068Z,65.41
2022-09-30T23:08:14.805Z,67.60
2022-09-30T23:10:50.774Z,66.83
2022-09-30T23:13:20.045Z,65.72
2022-09-30T23:15:47.652Z,65.71
2022-09-30T23:18:17.101Z,66.23
2022-09-30T23:20:53.671Z,66.24
2022-09-30T23:23:20.365Z,66.12
2022-09-30T23:25:47.413Z,65.91
2022-09-30T23:28:14.184Z,65.42
2022-09-30T23:30:40.954Z,65.56
2022-09-30T23:33:09.373Z,65.68
2022-09-30T23:35:36.121Z,66.82
2022-09-30T23:38:03.053Z,66.25
2022-09-30T23:40:31.513Z,66.59
2022-09-30T23:42:58.209Z,66.18
2022-09-30T23:45:24.949Z,66.49
2022-09-30T23:47:52.721Z,66.57
2022-09-30T23:50:19.629Z,66.38
2022-09-30T23:52:46.337Z,66.17
2022-09-30T23:55:13.337Z,65.48
2022-09-30T23:57:40.064Z,65.74
